sensor_id;sensor_type;location;lat;lon;timestamp;temperature;humidity
75170;SHT31;63749;49.186;9.222;2024-02-23T00:00:26;8.54;78.23
75170;SHT31;63749;49.186;9.222;2024-02-23T00:02:51;8.45;78.15
75170;SHT31;63749;49.186;9.222;2024-02-23T00:05:19;8.45;78.66
75170;SHT31;63749;49.186;9.222;2024-02-23T00:07:44;8.38;78.98
75170;SHT31;63749;49.186;9.222;2024-02-23T00:10:10;8.33;79.40
75170;SHT31;63749;49.186;9.222;2024-02-23T00:12:35;8.27;79.72
75170;SHT31;63749;49.186;9.222;2024-02-23T00:15:00;8.23;79.75
75170;SHT31;63749;49.186;9.222;2024-02-23T00:17:26;8.20;79.71
75170;SHT31;63749;49.186;9.222;2024-02-23T00:19:52;8.15;79.92
75170;SHT31;63749;49.186;9.222;2024-02-23T00:22:18;8.14;80.31
75170;SHT31;63749;49.186;9.222;2024-02-23T00:24:43;8.13;79.72
75170;SHT31;63749;49.186;9.222;2024-02-23T00:27:09;8.15;80.05
75170;SHT31;63749;49.186;9.222;2024-02-23T00:29:34;8.05;79.97
75170;SHT31;63749;49.186;9.222;2024-02-23T00:32:00;8.05;79.60
75170;SHT31;63749;49.186;9.222;2024-02-23T00:34:26;8.10;79.18
75170;SHT31;63749;49.186;9.222;2024-02-23T00:36:51;8.08;78.69
75170;SHT31;63749;49.186;9.222;2024-02-23T00:39:16;8.07;78.38
75170;SHT31;63749;49.186;9.222;2024-02-23T00:41:42;8.07;78.11
75170;SHT31;63749;49.186;9.222;2024-02-23T00:44:07;8.10;77.32
75170;SHT31;63749;49.186;9.222;2024-02-23T00:46:33;8.07;77.28
75170;SHT31;63749;49.186;9.222;2024-02-23T00:48:59;8.07;77.04
75170;SHT31;63749;49.186;9.222;2024-02-23T00:51:25;8.08;76.62
75170;SHT31;63749;49.186;9.222;2024-02-23T00:53:50;8.05;77.02
75170;SHT31;63749;49.186;9.222;2024-02-23T00:56:16;8.00;77.16
75170;SHT31;63749;49.186;9.222;2024-02-23T00:58:41;8.03;76.22
75170;SHT31;63749;49.186;9.222;2024-02-23T01:01:06;8.00;75.68
75170;SHT31;63749;49.186;9.222;2024-02-23T01:03:33;8.00;76.00
75170;SHT31;63749;49.186;9.222;2024-02-23T01:05:58;7.98;75.85
75170;SHT31;63749;49.186;9.222;2024-02-23T01:08:24;7.97;75.74
75170;SHT31;63749;49.186;9.222;2024-02-23T01:10:49;8.00;75.72
75170;SHT31;63749;49.186;9.222;2024-02-23T01:13:14;7.97;75.91
75170;SHT31;63749;49.186;9.222;2024-02-23T01:15:41;7.87;76.31
75170;SHT31;63749;49.186;9.222;2024-02-23T01:18:07;7.86;76.21
75170;SHT31;63749;49.186;9.222;2024-02-23T01:20:33;7.82;76.44
75170;SHT31;63749;49.186;9.222;2024-02-23T01:22:58;7.72;76.70
75170;SHT31;63749;49.186;9.222;2024-02-23T01:25:24;7.79;76.40
75170;SHT31;63749;49.186;9.222;2024-02-23T01:27:49;7.80;76.08
75170;SHT31;63749;49.186;9.222;2024-02-23T01:30:15;7.72;76.71
75170;SHT31;63749;49.186;9.222;2024-02-23T01:32:40;7.74;76.33
75170;SHT31;63749;49.186;9.222;2024-02-23T01:35:06;7.66;76.24
75170;SHT31;63749;49.186;9.222;2024-02-23T01:37:32;7.76;75.54
75170;SHT31;63749;49.186;9.222;2024-02-23T01:39:58;7.73;75.50
75170;SHT31;63749;49.186;9.222;2024-02-23T01:42:24;7.72;75.69
75170;SHT31;63749;49.186;9.222;2024-02-23T01:44:51;7.80;74.96
75170;SHT31;63749;49.186;9.222;2024-02-23T01:47:16;7.66;75.79
75170;SHT31;63749;49.186;9.222;2024-02-23T01:49:42;7.56;76.10
75170;SHT31;63749;49.186;9.222;2024-02-23T01:52:07;7.55;76.07
75170;SHT31;63749;49.186;9.222;2024-02-23T01:54:33;7.63;75.06
75170;SHT31;63749;49.186;9.222;2024-02-23T01:57:00;7.67;75.48
75170;SHT31;63749;49.186;9.222;2024-02-23T01:59:26;7.58;76.31
75170;SHT31;63749;49.186;9.222;2024-02-23T02:01:53;7.55;75.56
75170;SHT31;63749;49.186;9.222;2024-02-23T02:04:21;7.56;75.79
75170;SHT31;63749;49.186;9.222;2024-02-23T02:06:47;7.59;75.30
75170;SHT31;63749;49.186;9.222;2024-02-23T02:09:12;7.51;75.74
75170;SHT31;63749;49.186;9.222;2024-02-23T02:11:47;7.53;75.90
75170;SHT31;63749;49.186;9.222;2024-02-23T02:14:18;7.46;75.76
75170;SHT31;63749;49.186;9.222;2024-02-23T02:16:44;7.55;74.88
75170;SHT31;63749;49.186;9.222;2024-02-23T02:19:13;7.59;74.42
75170;SHT31;63749;49.186;9.222;2024-02-23T02:21:40;7.55;74.71
75170;SHT31;63749;49.186;9.222;2024-02-23T02:24:06;7.52;75.17
75170;SHT31;63749;49.186;9.222;2024-02-23T02:26:35;7.53;75.43
75170;SHT31;63749;49.186;9.222;2024-02-23T02:29:02;7.41;75.50
75170;SHT31;63749;49.186;9.222;2024-02-23T02:31:29;7.39;75.53
75170;SHT31;63749;49.186;9.222;2024-02-23T02:34:05;7.45;75.21
75170;SHT31;63749;49.186;9.222;2024-02-23T02:36:30;7.39;75.22
75170;SHT31;63749;49.186;9.222;2024-02-23T02:38:55;7.41;75.00
75170;SHT31;63749;49.186;9.222;2024-02-23T02:41:24;7.39;74.91
75170;SHT31;63749;49.186;9.222;2024-02-23T02:43:52;7.38;75.22
75170;SHT31;63749;49.186;9.222;2024-02-23T02:46:18;7.34;75.32
75170;SHT31;63749;49.186;9.222;2024-02-23T02:48:43;7.39;74.81
75170;SHT31;63749;49.186;9.222;2024-02-23T02:51:13;7.45;74.41
75170;SHT31;63749;49.186;9.222;2024-02-23T02:53:39;7.46;74.62
75170;SHT31;63749;49.186;9.222;2024-02-23T02:56:10;7.48;74.91
75170;SHT31;63749;49.186;9.222;2024-02-23T02:58:35;7.51;74.57
75170;SHT31;63749;49.186;9.222;2024-02-23T03:01:01;7.53;74.07
75170;SHT31;63749;49.186;9.222;2024-02-23T03:03:26;7.52;73.91
75170;SHT31;63749;49.186;9.222;2024-02-23T03:05:53;7.48;74.26
75170;SHT31;63749;49.186;9.222;2024-02-23T03:08:18;7.42;74.55
75170;SHT31;63749;49.186;9.222;2024-02-23T03:10:44;7.49;73.55
75170;SHT31;63749;49.186;9.222;2024-02-23T03:13:09;7.56;73.68
75170;SHT31;63749;49.186;9.222;2024-02-23T03:15:34;7.53;73.44
75170;SHT31;63749;49.186;9.222;2024-02-23T03:18:00;7.56;73.56
75170;SHT31;63749;49.186;9.222;2024-02-23T03:20:26;7.51;73.85
75170;SHT31;63749;49.186;9.222;2024-02-23T03:22:52;7.45;73.67
75170;SHT31;63749;49.186;9.222;2024-02-23T03:25:18;7.51;73.53
75170;SHT31;63749;49.186;9.222;2024-02-23T03:27:44;7.55;73.16
75170;SHT31;63749;49.186;9.222;2024-02-23T03:30:10;7.51;72.89
75170;SHT31;63749;49.186;9.222;2024-02-23T03:32:35;7.53;73.02
75170;SHT31;63749;49.186;9.222;2024-02-23T03:35:05;7.59;72.33
75170;SHT31;63749;49.186;9.222;2024-02-23T03:37:32;7.52;73.63
75170;SHT31;63749;49.186;9.222;2024-02-23T03:39:57;7.43;73.83
75170;SHT31;63749;49.186;9.222;2024-02-23T03:42:24;7.42;73.89
75170;SHT31;63749;49.186;9.222;2024-02-23T03:44:50;7.46;73.67
75170;SHT31;63749;49.186;9.222;2024-02-23T03:47:21;7.49;73.23
75170;SHT31;63749;49.186;9.222;2024-02-23T03:49:49;7.42;74.20
75170;SHT31;63749;49.186;9.222;2024-02-23T03:52:14;7.41;73.84
75170;SHT31;63749;49.186;9.222;2024-02-23T03:54:40;7.36;74.35
75170;SHT31;63749;49.186;9.222;2024-02-23T03:57:05;7.39;74.45
75170;SHT31;63749;49.186;9.222;2024-02-23T03:59:30;7.39;73.23
75170;SHT31;63749;49.186;9.222;2024-02-23T04:01:56;7.34;73.71
75170;SHT31;63749;49.186;9.222;2024-02-23T04:04:21;7.31;73.69
75170;SHT31;63749;49.186;9.222;2024-02-23T04:06:47;7.22;74.08
75170;SHT31;63749;49.186;9.222;2024-02-23T04:09:12;7.15;72.98
75170;SHT31;63749;49.186;9.222;2024-02-23T04:11:38;7.16;73.17
75170;SHT31;63749;49.186;9.222;2024-02-23T04:14:06;7.16;72.65
75170;SHT31;63749;49.186;9.222;2024-02-23T04:16:33;7.16;71.43
75170;SHT31;63749;49.186;9.222;2024-02-23T04:18:59;7.21;71.82
75170;SHT31;63749;49.186;9.222;2024-02-23T04:21:25;7.19;71.52
75170;SHT31;63749;49.186;9.222;2024-02-23T04:23:50;7.21;71.84
75170;SHT31;63749;49.186;9.222;2024-02-23T04:26:16;7.19;72.05
75170;SHT31;63749;49.186;9.222;2024-02-23T04:28:42;7.18;72.15
75170;SHT31;63749;49.186;9.222;2024-02-23T04:31:08;7.21;71.89
75170;SHT31;63749;49.186;9.222;2024-02-23T04:33:35;7.25;70.80
75170;SHT31;63749;49.186;9.222;2024-02-23T04:36:02;7.25;70.52
75170;SHT31;63749;49.186;9.222;2024-02-23T04:38:28;7.19;71.16
75170;SHT31;63749;49.186;9.222;2024-02-23T04:40:54;7.24;70.84
75170;SHT31;63749;49.186;9.222;2024-02-23T04:43:19;7.26;70.58
75170;SHT31;63749;49.186;9.222;2024-02-23T04:45:45;7.26;70.43
75170;SHT31;63749;49.186;9.222;2024-02-23T04:48:10;7.15;71.31
75170;SHT31;63749;49.186;9.222;2024-02-23T04:50:35;7.14;71.45
75170;SHT31;63749;49.186;9.222;2024-02-23T04:53:01;7.12;71.63
75170;SHT31;63749;49.186;9.222;2024-02-23T04:55:27;7.16;71.10
75170;SHT31;63749;49.186;9.222;2024-02-23T04:57:53;7.18;70.96
75170;SHT31;63749;49.186;9.222;2024-02-23T05:00:18;7.14;70.86
75170;SHT31;63749;49.186;9.222;2024-02-23T05:02:45;7.19;70.60
75170;SHT31;63749;49.186;9.222;2024-02-23T05:05:11;7.15;71.36
75170;SHT31;63749;49.186;9.222;2024-02-23T05:07:37;7.12;71.93
75170;SHT31;63749;49.186;9.222;2024-02-23T05:10:02;7.01;72.33
75170;SHT31;63749;49.186;9.222;2024-02-23T05:12:30;6.94;72.13
75170;SHT31;63749;49.186;9.222;2024-02-23T05:14:55;6.97;71.91
75170;SHT31;63749;49.186;9.222;2024-02-23T05:17:21;6.94;71.71
75170;SHT31;63749;49.186;9.222;2024-02-23T05:19:47;6.95;71.99
75170;SHT31;63749;49.186;9.222;2024-02-23T05:22:13;6.91;72.51
75170;SHT31;63749;49.186;9.222;2024-02-23T05:24:38;6.84;73.03
75170;SHT31;63749;49.186;9.222;2024-02-23T05:27:04;6.83;73.24
75170;SHT31;63749;49.186;9.222;2024-02-23T05:29:29;6.73;74.04
75170;SHT31;63749;49.186;9.222;2024-02-23T05:31:55;6.79;72.85
75170;SHT31;63749;49.186;9.222;2024-02-23T05:34:22;6.74;73.64
75170;SHT31;63749;49.186;9.222;2024-02-23T05:36:47;6.76;73.86
75170;SHT31;63749;49.186;9.222;2024-02-23T05:39:13;6.81;72.27
75170;SHT31;63749;49.186;9.222;2024-02-23T05:41:41;6.87;72.09
75170;SHT31;63749;49.186;9.222;2024-02-23T05:44:08;6.79;72.68
75170;SHT31;63749;49.186;9.222;2024-02-23T05:46:36;6.83;72.53
75170;SHT31;63749;49.186;9.222;2024-02-23T05:49:03;6.85;71.84
75170;SHT31;63749;49.186;9.222;2024-02-23T05:51:30;6.85;72.20
75170;SHT31;63749;49.186;9.222;2024-02-23T05:53:56;6.76;72.47
75170;SHT31;63749;49.186;9.222;2024-02-23T05:56:21;6.64;73.11
75170;SHT31;63749;49.186;9.222;2024-02-23T05:58:49;6.57;73.06
75170;SHT31;63749;49.186;9.222;2024-02-23T06:01:14;6.62;72.06
75170;SHT31;63749;49.186;9.222;2024-02-23T06:03:41;6.64;72.52
75170;SHT31;63749;49.186;9.222;2024-02-23T06:06:07;6.52;73.13
75170;SHT31;63749;49.186;9.222;2024-02-23T06:08:36;6.46;73.48
75170;SHT31;63749;49.186;9.222;2024-02-23T06:11:05;6.50;73.06
75170;SHT31;63749;49.186;9.222;2024-02-23T06:13:30;6.39;73.80
75170;SHT31;63749;49.186;9.222;2024-02-23T06:15:56;6.40;73.35
75170;SHT31;63749;49.186;9.222;2024-02-23T06:18:21;6.35;72.83
75170;SHT31;63749;49.186;9.222;2024-02-23T06:20:48;6.33;73.14
75170;SHT31;63749;49.186;9.222;2024-02-23T06:23:14;6.24;73.68
75170;SHT31;63749;49.186;9.222;2024-02-23T06:25:39;6.19;73.74
75170;SHT31;63749;49.186;9.222;2024-02-23T06:28:05;6.42;72.42
75170;SHT31;63749;49.186;9.222;2024-02-23T06:30:32;6.56;71.74
75170;SHT31;63749;49.186;9.222;2024-02-23T06:32:57;6.60;71.60
75170;SHT31;63749;49.186;9.222;2024-02-23T06:35:22;6.62;71.95
75170;SHT31;63749;49.186;9.222;2024-02-23T06:37:48;6.53;72.27
75170;SHT31;63749;49.186;9.222;2024-02-23T06:40:13;6.62;72.22
75170;SHT31;63749;49.186;9.222;2024-02-23T06:42:39;6.73;71.14
75170;SHT31;63749;49.186;9.222;2024-02-23T06:45:05;6.76;70.97
75170;SHT31;63749;49.186;9.222;2024-02-23T06:47:30;6.74;70.94
75170;SHT31;63749;49.186;9.222;2024-02-23T06:49:55;6.74;70.97
75170;SHT31;63749;49.186;9.222;2024-02-23T06:52:21;6.80;70.45
75170;SHT31;63749;49.186;9.222;2024-02-23T06:54:48;6.73;70.53
75170;SHT31;63749;49.186;9.222;2024-02-23T06:57:13;6.76;70.61
75170;SHT31;63749;49.186;9.222;2024-02-23T06:59:39;6.62;71.13
75170;SHT31;63749;49.186;9.222;2024-02-23T07:02:04;6.63;70.15
75170;SHT31;63749;49.186;9.222;2024-02-23T07:04:29;6.76;69.42
75170;SHT31;63749;49.186;9.222;2024-02-23T07:06:55;6.80;69.33
75170;SHT31;63749;49.186;9.222;2024-02-23T07:09:20;6.81;68.98
75170;SHT31;63749;49.186;9.222;2024-02-23T07:11:46;6.74;69.16
75170;SHT31;63749;49.186;9.222;2024-02-23T07:14:12;6.81;69.27
75170;SHT31;63749;49.186;9.222;2024-02-23T07:16:39;6.81;69.11
75170;SHT31;63749;49.186;9.222;2024-02-23T07:19:05;6.81;69.27
75170;SHT31;63749;49.186;9.222;2024-02-23T07:21:30;6.80;69.51
75170;SHT31;63749;49.186;9.222;2024-02-23T07:23:56;6.69;70.28
75170;SHT31;63749;49.186;9.222;2024-02-23T07:26:22;6.69;70.55
75170;SHT31;63749;49.186;9.222;2024-02-23T07:28:48;6.76;69.87
75170;SHT31;63749;49.186;9.222;2024-02-23T07:31:14;6.74;70.32
75170;SHT31;63749;49.186;9.222;2024-02-23T07:33:40;6.73;70.59
75170;SHT31;63749;49.186;9.222;2024-02-23T07:36:06;6.74;69.91
75170;SHT31;63749;49.186;9.222;2024-02-23T07:38:33;6.79;69.75
75170;SHT31;63749;49.186;9.222;2024-02-23T07:40:59;6.87;69.69
75170;SHT31;63749;49.186;9.222;2024-02-23T07:43:24;6.83;69.55
75170;SHT31;63749;49.186;9.222;2024-02-23T07:45:51;6.80;69.46
75170;SHT31;63749;49.186;9.222;2024-02-23T07:48:16;6.93;68.92
75170;SHT31;63749;49.186;9.222;2024-02-23T07:50:42;6.90;69.49
75170;SHT31;63749;49.186;9.222;2024-02-23T07:53:07;6.87;69.66
75170;SHT31;63749;49.186;9.222;2024-02-23T07:55:32;7.01;69.33
75170;SHT31;63749;49.186;9.222;2024-02-23T07:57:58;6.94;69.50
75170;SHT31;63749;49.186;9.222;2024-02-23T08:00:27;6.95;69.55
75170;SHT31;63749;49.186;9.222;2024-02-23T08:02:52;6.98;68.58
75170;SHT31;63749;49.186;9.222;2024-02-23T08:05:21;6.94;69.16
75170;SHT31;63749;49.186;9.222;2024-02-23T08:07:47;6.81;69.82
75170;SHT31;63749;49.186;9.222;2024-02-23T08:10:12;6.72;70.61
75170;SHT31;63749;49.186;9.222;2024-02-23T08:12:38;6.64;71.59
75170;SHT31;63749;49.186;9.222;2024-02-23T08:15:03;6.49;71.71
75170;SHT31;63749;49.186;9.222;2024-02-23T08:17:29;6.57;71.43
75170;SHT31;63749;49.186;9.222;2024-02-23T08:19:54;6.52;71.38
75170;SHT31;63749;49.186;9.222;2024-02-23T08:22:20;6.57;70.96
75170;SHT31;63749;49.186;9.222;2024-02-23T08:24:45;6.45;72.04
75170;SHT31;63749;49.186;9.222;2024-02-23T08:27:10;6.37;72.92
75170;SHT31;63749;49.186;9.222;2024-02-23T08:29:39;6.36;72.45
75170;SHT31;63749;49.186;9.222;2024-02-23T08:32:05;6.45;71.74
75170;SHT31;63749;49.186;9.222;2024-02-23T08:34:31;6.70;76.97
75170;SHT31;63749;49.186;9.222;2024-02-23T08:36:56;7.05;72.74
75170;SHT31;63749;49.186;9.222;2024-02-23T08:39:21;7.69;83.10
75170;SHT31;63749;49.186;9.222;2024-02-23T08:41:47;7.28;73.25
75170;SHT31;63749;49.186;9.222;2024-02-23T08:44:12;7.31;72.93
75170;SHT31;63749;49.186;9.222;2024-02-23T08:46:38;7.07;70.86
75170;SHT31;63749;49.186;9.222;2024-02-23T08:49:05;7.12;72.07
75170;SHT31;63749;49.186;9.222;2024-02-23T08:51:30;7.03;70.94
75170;SHT31;63749;49.186;9.222;2024-02-23T08:53:55;7.00;72.22
75170;SHT31;63749;49.186;9.222;2024-02-23T08:56:22;6.88;71.95
75170;SHT31;63749;49.186;9.222;2024-02-23T08:58:47;6.97;72.57
75170;SHT31;63749;49.186;9.222;2024-02-23T09:01:13;6.87;72.79
75170;SHT31;63749;49.186;9.222;2024-02-23T09:03:38;6.74;73.76
75170;SHT31;63749;49.186;9.222;2024-02-23T09:06:04;6.87;74.50
75170;SHT31;63749;49.186;9.222;2024-02-23T09:08:29;6.84;74.71
75170;SHT31;63749;49.186;9.222;2024-02-23T09:10:54;6.97;74.26
75170;SHT31;63749;49.186;9.222;2024-02-23T09:13:20;7.07;73.70
75170;SHT31;63749;49.186;9.222;2024-02-23T09:15:45;6.93;73.52
75170;SHT31;63749;49.186;9.222;2024-02-23T09:18:10;6.94;73.48
75170;SHT31;63749;49.186;9.222;2024-02-23T09:20:36;6.93;73.99
75170;SHT31;63749;49.186;9.222;2024-02-23T09:23:01;7.08;73.58
75170;SHT31;63749;49.186;9.222;2024-02-23T09:25:26;7.16;72.91
75170;SHT31;63749;49.186;9.222;2024-02-23T09:27:52;7.25;72.79
75170;SHT31;63749;49.186;9.222;2024-02-23T09:30:17;7.36;72.56
75170;SHT31;63749;49.186;9.222;2024-02-23T09:32:43;7.46;73.15
75170;SHT31;63749;49.186;9.222;2024-02-23T09:35:09;7.65;72.87
75170;SHT31;63749;49.186;9.222;2024-02-23T09:37:35;7.70;72.09
75170;SHT31;63749;49.186;9.222;2024-02-23T09:40:00;7.77;72.75
75170;SHT31;63749;49.186;9.222;2024-02-23T09:42:28;7.82;72.28
75170;SHT31;63749;49.186;9.222;2024-02-23T09:44:58;7.89;71.78
75170;SHT31;63749;49.186;9.222;2024-02-23T09:47:26;8.48;70.49
75170;SHT31;63749;49.186;9.222;2024-02-23T09:49:52;8.69;69.41
75170;SHT31;63749;49.186;9.222;2024-02-23T09:52:19;8.84;68.08
75170;SHT31;63749;49.186;9.222;2024-02-23T09:54:45;8.99;66.67
75170;SHT31;63749;49.186;9.222;2024-02-23T09:57:11;9.00;67.68
75170;SHT31;63749;49.186;9.222;2024-02-23T09:59:36;9.06;66.43
75170;SHT31;63749;49.186;9.222;2024-02-23T10:02:06;9.04;66.07
75170;SHT31;63749;49.186;9.222;2024-02-23T10:04:33;9.28;65.56
75170;SHT31;63749;49.186;9.222;2024-02-23T10:06:58;9.19;65.71
75170;SHT31;63749;49.186;9.222;2024-02-23T10:09:24;9.04;65.19
75170;SHT31;63749;49.186;9.222;2024-02-23T10:11:53;8.92;65.58
75170;SHT31;63749;49.186;9.222;2024-02-23T10:14:18;8.90;64.54
75170;SHT31;63749;49.186;9.222;2024-02-23T10:16:44;8.73;65.88
75170;SHT31;63749;49.186;9.222;2024-02-23T10:19:09;8.71;65.22
75170;SHT31;63749;49.186;9.222;2024-02-23T10:21:35;8.75;65.83
75170;SHT31;63749;49.186;9.222;2024-02-23T10:24:01;8.79;66.67
75170;SHT31;63749;49.186;9.222;2024-02-23T10:26:26;8.71;66.91
75170;SHT31;63749;49.186;9.222;2024-02-23T10:28:52;8.72;66.25
75170;SHT31;63749;49.186;9.222;2024-02-23T10:31:18;8.82;67.19
75170;SHT31;63749;49.186;9.222;2024-02-23T10:33:44;8.79;66.41
75170;SHT31;63749;49.186;9.222;2024-02-23T10:36:11;8.66;67.47
75170;SHT31;63749;49.186;9.222;2024-02-23T10:38:40;8.65;67.38
75170;SHT31;63749;49.186;9.222;2024-02-23T10:41:10;8.48;67.72
75170;SHT31;63749;49.186;9.222;2024-02-23T10:43:41;8.62;68.22
75170;SHT31;63749;49.186;9.222;2024-02-23T10:46:09;8.94;68.26
75170;SHT31;63749;49.186;9.222;2024-02-23T10:48:39;8.86;68.29
75170;SHT31;63749;49.186;9.222;2024-02-23T10:51:06;8.89;67.48
75170;SHT31;63749;49.186;9.222;2024-02-23T10:53:32;8.83;67.03
75170;SHT31;63749;49.186;9.222;2024-02-23T10:56:00;8.65;67.66
75170;SHT31;63749;49.186;9.222;2024-02-23T10:58:26;8.69;67.13
75170;SHT31;63749;49.186;9.222;2024-02-23T11:00:54;8.76;66.79
75170;SHT31;63749;49.186;9.222;2024-02-23T11:03:23;8.86;66.58
75170;SHT31;63749;49.186;9.222;2024-02-23T11:05:48;9.06;65.42
75170;SHT31;63749;49.186;9.222;2024-02-23T11:08:17;9.06;65.41
75170;SHT31;63749;49.186;9.222;2024-02-23T11:10:49;9.40;65.52
75170;SHT31;63749;49.186;9.222;2024-02-23T11:13:15;9.50;64.56
75170;SHT31;63749;49.186;9.222;2024-02-23T11:15:42;9.37;64.43
75170;SHT31;63749;49.186;9.222;2024-02-23T11:18:27;9.68;64.54
75170;SHT31;63749;49.186;9.222;2024-02-23T11:20:58;9.70;63.86
75170;SHT31;63749;49.186;9.222;2024-02-23T11:23:24;9.62;64.50
75170;SHT31;63749;49.186;9.222;2024-02-23T11:28:27;9.31;63.93
75170;SHT31;63749;49.186;9.222;2024-02-23T11:30:53;9.26;64.46
75170;SHT31;63749;49.186;9.222;2024-02-23T11:33:48;9.40;64.36
75170;SHT31;63749;49.186;9.222;2024-02-23T11:36:28;9.43;63.69
75170;SHT31;63749;49.186;9.222;2024-02-23T11:38:56;9.35;64.43
75170;SHT31;63749;49.186;9.222;2024-02-23T11:41:22;9.48;64.08
75170;SHT31;63749;49.186;9.222;2024-02-23T11:43:52;9.51;63.84
75170;SHT31;63749;49.186;9.222;2024-02-23T11:46:18;9.64;63.69
75170;SHT31;63749;49.186;9.222;2024-02-23T11:48:45;9.79;64.02
75170;SHT31;63749;49.186;9.222;2024-02-23T11:51:15;9.91;62.69
75170;SHT31;63749;49.186;9.222;2024-02-23T11:53:41;9.75;63.61
75170;SHT31;63749;49.186;9.222;2024-02-23T11:56:07;9.72;63.63
75170;SHT31;63749;49.186;9.222;2024-02-23T11:58:33;9.71;64.14
75170;SHT31;63749;49.186;9.222;2024-02-23T12:01:00;9.92;63.40
75170;SHT31;63749;49.186;9.222;2024-02-23T12:03:28;10.03;63.15
75170;SHT31;63749;49.186;9.222;2024-02-23T12:05:56;10.02;63.41
75170;SHT31;63749;49.186;9.222;2024-02-23T12:08:24;10.02;63.15
75170;SHT31;63749;49.186;9.222;2024-02-23T12:10:51;10.20;63.31
75170;SHT31;63749;49.186;9.222;2024-02-23T12:13:17;10.24;62.87
75170;SHT31;63749;49.186;9.222;2024-02-23T12:15:42;10.39;62.49
75170;SHT31;63749;49.186;9.222;2024-02-23T12:18:10;10.61;62.27
75170;SHT31;63749;49.186;9.222;2024-02-23T12:20:35;10.75;62.22
75170;SHT31;63749;49.186;9.222;2024-02-23T12:23:01;10.94;62.30
75170;SHT31;63749;49.186;9.222;2024-02-23T12:25:26;10.50;61.54
75170;SHT31;63749;49.186;9.222;2024-02-23T12:27:55;10.68;61.55
75170;SHT31;63749;49.186;9.222;2024-02-23T12:30:22;10.74;62.14
75170;SHT31;63749;49.186;9.222;2024-02-23T12:32:47;10.94;61.77
75170;SHT31;63749;49.186;9.222;2024-02-23T12:35:14;10.74;62.37
75170;SHT31;63749;49.186;9.222;2024-02-23T12:37:40;10.65;62.28
75170;SHT31;63749;49.186;9.222;2024-02-23T12:40:07;10.49;62.51
75170;SHT31;63749;49.186;9.222;2024-02-23T12:42:34;10.36;63.13
75170;SHT31;63749;49.186;9.222;2024-02-23T12:45:00;10.10;62.61
75170;SHT31;63749;49.186;9.222;2024-02-23T12:47:25;9.98;62.95
75170;SHT31;63749;49.186;9.222;2024-02-23T12:49:51;9.88;63.17
75170;SHT31;63749;49.186;9.222;2024-02-23T12:52:16;9.72;64.27
75170;SHT31;63749;49.186;9.222;2024-02-23T12:54:41;9.68;63.84
75170;SHT31;63749;49.186;9.222;2024-02-23T12:57:07;9.75;64.21
75170;SHT31;63749;49.186;9.222;2024-02-23T12:59:32;9.59;63.92
75170;SHT31;63749;49.186;9.222;2024-02-23T13:01:58;9.70;64.54
75170;SHT31;63749;49.186;9.222;2024-02-23T13:04:23;9.64;64.32
75170;SHT31;63749;49.186;9.222;2024-02-23T13:06:48;9.55;64.11
75170;SHT31;63749;49.186;9.222;2024-02-23T13:09:14;9.50;65.12
75170;SHT31;63749;49.186;9.222;2024-02-23T13:11:40;9.41;64.30
75170;SHT31;63749;49.186;9.222;2024-02-23T13:14:05;9.45;64.38
75170;SHT31;63749;49.186;9.222;2024-02-23T13:16:31;9.68;64.02
75170;SHT31;63749;49.186;9.222;2024-02-23T13:18:56;9.65;63.59
75170;SHT31;63749;49.186;9.222;2024-02-23T13:21:21;9.64;63.96
75170;SHT31;63749;49.186;9.222;2024-02-23T13:23:47;9.59;63.88
75170;SHT31;63749;49.186;9.222;2024-02-23T13:26:12;9.61;63.41
75170;SHT31;63749;49.186;9.222;2024-02-23T13:28:41;9.52;65.10
75170;SHT31;63749;49.186;9.222;2024-02-23T13:31:06;9.43;67.58
75170;SHT31;63749;49.186;9.222;2024-02-23T13:33:32;9.28;67.56
75170;SHT31;63749;49.186;9.222;2024-02-23T13:35:57;9.26;68.74
75170;SHT31;63749;49.186;9.222;2024-02-23T13:38:24;9.35;68.77
75170;SHT31;63749;49.186;9.222;2024-02-23T13:40:49;9.45;68.20
75170;SHT31;63749;49.186;9.222;2024-02-23T13:43:15;9.57;66.75
75170;SHT31;63749;49.186;9.222;2024-02-23T13:45:51;9.70;66.92
75170;SHT31;63749;49.186;9.222;2024-02-23T13:48:17;9.78;66.76
75170;SHT31;63749;49.186;9.222;2024-02-23T13:50:46;10.90;62.38
75170;SHT31;63749;49.186;9.222;2024-02-23T13:53:12;10.44;63.97
75170;SHT31;63749;49.186;9.222;2024-02-23T13:55:38;10.40;62.73
75170;SHT31;63749;49.186;9.222;2024-02-23T13:58:04;10.29;63.71
75170;SHT31;63749;49.186;9.222;2024-02-23T14:00:29;10.24;64.25
75170;SHT31;63749;49.186;9.222;2024-02-23T14:02:55;10.20;64.39
75170;SHT31;63749;49.186;9.222;2024-02-23T14:05:20;10.17;64.51
75170;SHT31;63749;49.186;9.222;2024-02-23T14:07:47;10.16;63.48
75170;SHT31;63749;49.186;9.222;2024-02-23T14:10:13;10.23;63.82
75170;SHT31;63749;49.186;9.222;2024-02-23T14:12:39;10.39;64.86
75170;SHT31;63749;49.186;9.222;2024-02-23T14:15:05;10.57;62.57
75170;SHT31;63749;49.186;9.222;2024-02-23T14:17:31;12.28;57.99
75170;SHT31;63749;49.186;9.222;2024-02-23T14:19:56;12.16;58.08
75170;SHT31;63749;49.186;9.222;2024-02-23T14:22:21;11.69;60.11
75170;SHT31;63749;49.186;9.222;2024-02-23T14:24:47;11.38;59.89
75170;SHT31;63749;49.186;9.222;2024-02-23T14:27:12;11.25;60.02
75170;SHT31;63749;49.186;9.222;2024-02-23T14:29:37;11.01;61.30
75170;SHT31;63749;49.186;9.222;2024-02-23T14:32:03;10.72;61.04
75170;SHT31;63749;49.186;9.222;2024-02-23T14:34:30;10.78;62.17
75170;SHT31;63749;49.186;9.222;2024-02-23T14:36:55;10.88;61.44
75170;SHT31;63749;49.186;9.222;2024-02-23T14:39:21;10.59;62.21
75170;SHT31;63749;49.186;9.222;2024-02-23T14:41:47;10.64;62.73
75170;SHT31;63749;49.186;9.222;2024-02-23T14:44:13;10.70;63.53
75170;SHT31;63749;49.186;9.222;2024-02-23T14:46:39;10.68;62.31
75170;SHT31;63749;49.186;9.222;2024-02-23T14:49:05;10.43;62.35
75170;SHT31;63749;49.186;9.222;2024-02-23T14:51:30;10.23;62.77
75170;SHT31;63749;49.186;9.222;2024-02-23T14:53:55;10.08;63.36
75170;SHT31;63749;49.186;9.222;2024-02-23T14:56:21;9.99;63.31
75170;SHT31;63749;49.186;9.222;2024-02-23T14:58:46;9.96;63.91
75170;SHT31;63749;49.186;9.222;2024-02-23T15:01:11;9.85;63.16
75170;SHT31;63749;49.186;9.222;2024-02-23T15:03:37;9.71;64.17
75170;SHT31;63749;49.186;9.222;2024-02-23T15:06:03;9.77;64.01
75170;SHT31;63749;49.186;9.222;2024-02-23T15:08:28;9.68;64.71
75170;SHT31;63749;49.186;9.222;2024-02-23T15:10:54;9.61;65.42
75170;SHT31;63749;49.186;9.222;2024-02-23T15:13:20;9.57;64.19
75170;SHT31;63749;49.186;9.222;2024-02-23T15:15:46;9.57;65.11
75170;SHT31;63749;49.186;9.222;2024-02-23T15:18:11;9.57;65.79
75170;SHT31;63749;49.186;9.222;2024-02-23T15:20:37;9.48;65.15
75170;SHT31;63749;49.186;9.222;2024-02-23T15:23:02;9.50;65.49
75170;SHT31;63749;49.186;9.222;2024-02-23T15:25:27;9.40;65.51
75170;SHT31;63749;49.186;9.222;2024-02-23T15:27:53;9.40;65.40
75170;SHT31;63749;49.186;9.222;2024-02-23T15:30:25;9.44;65.58
75170;SHT31;63749;49.186;9.222;2024-02-23T15:32:50;9.41;65.93
75170;SHT31;63749;49.186;9.222;2024-02-23T15:35:16;9.35;65.95
75170;SHT31;63749;49.186;9.222;2024-02-23T15:37:42;9.31;65.94
75170;SHT31;63749;49.186;9.222;2024-02-23T15:40:08;9.35;65.44